createdAt,value
2022-12-08T00:01:20.887Z,18.27
2022-12-08T00:03:48.123Z,15.97
2022-12-08T00:06:51.650Z,15.33
2022-12-08T00:09:36.359Z,15.43
2022-12-08T00:12:09.783Z,17.40
2022-12-08T00:14:41.892Z,13.10
2022-12-08T00:17:10.041Z,14.90
2022-12-08T00:19:37.047Z,11.33
2022-12-08T00:22:04.406Z,14.07
2022-12-08T00:24:32.864Z,10.90
2022-12-08T00:26:59.369Z,12.70
2022-12-08T00:29:26.034Z,14.13
2022-12-08T00:31:52.662Z,9.83
2022-12-08T00:34:19.533Z,6.73
2022-12-08T00:36:45.994Z,8.30
2022-12-08T00:39:13.391Z,4.43
2022-12-08T00:41:58.887Z,9.20
2022-12-08T00:44:25.464Z,5.80
2022-12-08T00:46:51.889Z,9.07
2022-12-08T00:49:18.604Z,12.53
2022-12-08T00:51:45.287Z,7.77
2022-12-08T00:54:12.087Z,7.93
2022-12-08T00:56:38.951Z,7.30
2022-12-08T00:59:06.446Z,8.73
2022-12-08T01:01:34.245Z,7.30
2022-12-08T01:04:05.166Z,8.63
2022-12-08T01:06:31.691Z,8.60
2022-12-08T01:08:58.269Z,7.40
2022-12-08T01:11:24.696Z,8.17
2022-12-08T01:13:51.118Z,7.53
2022-12-08T01:16:29.254Z,9.43
2022-12-08T01:18:57.526Z,7.63
2022-12-08T01:21:24.008Z,11.07
2022-12-08T01:23:50.585Z,7.63
2022-12-08T01:26:18.252Z,10.53
2022-12-08T01:28:44.955Z,9.63
2022-12-08T01:31:13.536Z,8.43
2022-12-08T01:33:40.463Z,11.90
2022-12-08T01:36:07.585Z,7.00
2022-12-08T01:38:35.038Z,6.40
2022-12-08T01:41:01.624Z,7.20
2022-12-08T01:43:51.153Z,8.17
2022-12-08T01:46:17.713Z,11.23
2022-12-08T01:48:44.159Z,6.80
2022-12-08T01:51:10.584Z,9.37
2022-12-08T01:53:37.171Z,10.53
2022-12-08T01:56:07.292Z,7.20
2022-12-08T01:58:36.920Z,5.83
2022-12-08T02:01:03.894Z,9.40
2022-12-08T02:03:41.125Z,8.33
2022-12-08T02:06:07.946Z,5.90
2022-12-08T02:08:36.232Z,5.27
2022-12-08T02:11:02.676Z,6.80
2022-12-08T02:13:29.234Z,5.87
2022-12-08T02:16:05.071Z,5.67
2022-12-08T02:19:22.392Z,6.77
2022-12-08T02:21:52.044Z,9.93
2022-12-08T02:24:39.996Z,10.60
2022-12-08T02:27:18.071Z,8.63
2022-12-08T02:30:02.942Z,8.83
2022-12-08T02:33:02.195Z,8.80
2022-12-08T02:35:50.232Z,13.30
2022-12-08T02:38:35.611Z,8.63
2022-12-08T02:41:13.338Z,12.33
2022-12-08T02:43:47.620Z,8.60
2022-12-08T02:46:19.359Z,8.53
2022-12-08T02:48:45.910Z,9.67
2022-12-08T02:51:12.330Z,8.77
2022-12-08T02:53:38.999Z,7.33
2022-12-08T02:56:38.544Z,11.97
2022-12-08T02:59:44.944Z,9.90
2022-12-08T03:02:31.492Z,9.70
2022-12-08T03:05:27.547Z,10.00
2022-12-08T03:08:03.168Z,10.97
2022-12-08T03:10:35.070Z,11.57
2022-12-08T03:13:06.642Z,12.23
2022-12-08T03:15:35.561Z,9.97
2022-12-08T03:18:04.077Z,8.73
2022-12-08T03:20:31.220Z,10.17
2022-12-08T03:22:59.828Z,11.93
2022-12-08T03:25:28.134Z,12.63
2022-12-08T03:27:54.661Z,10.60
2022-12-08T03:30:21.512Z,10.63
2022-12-08T03:32:53.329Z,14.50
2022-12-08T03:35:39.561Z,10.17
2022-12-08T03:38:09.011Z,11.70
2022-12-08T03:40:35.661Z,11.53
2022-12-08T03:43:02.218Z,10.10
2022-12-08T03:45:29.150Z,8.53
2022-12-08T03:47:55.916Z,11.33
2022-12-08T03:50:22.512Z,10.70
2022-12-08T03:52:49.070Z,14.07
2022-12-08T03:55:15.951Z,9.57
2022-12-08T03:57:42.857Z,14.20
2022-12-08T04:00:14.713Z,12.57
2022-12-08T04:02:41.168Z,16.40
2022-12-08T04:05:07.926Z,17.07
2022-12-08T04:07:35.216Z,15.30
2022-12-08T04:10:02.005Z,11.23
2022-12-08T04:12:28.725Z,15.97
2022-12-08T04:14:55.283Z,10.50
2022-12-08T04:17:21.710Z,12.83
2022-12-08T04:19:48.208Z,14.60
2022-12-08T04:22:14.644Z,14.60
2022-12-08T04:24:41.139Z,18.13
2022-12-08T04:27:07.547Z,17.00
2022-12-08T04:29:34.151Z,17.40
2022-12-08T04:32:00.624Z,19.23
2022-12-08T04:34:27.066Z,16.10
2022-12-08T04:36:53.556Z,13.20
2022-12-08T04:39:20.089Z,13.30
2022-12-08T04:41:46.513Z,15.60
2022-12-08T04:44:13.007Z,15.90
2022-12-08T04:46:43.315Z,16.90
2022-12-08T04:49:10.155Z,16.20
2022-12-08T04:51:36.668Z,16.17
2022-12-08T04:54:03.213Z,19.80
2022-12-08T04:56:29.689Z,18.93
2022-12-08T04:58:56.308Z,15.67
2022-12-08T05:01:22.912Z,18.43
2022-12-08T05:03:49.516Z,19.20
2022-12-08T05:06:16.062Z,14.53
2022-12-08T05:08:43.388Z,15.10
2022-12-08T05:11:11.874Z,17.40
2022-12-08T05:13:38.323Z,17.83
2022-12-08T05:16:12.951Z,16.27
2022-12-08T05:18:39.907Z,12.77
2022-12-08T05:21:06.571Z,18.47
2022-12-08T05:23:33.871Z,15.93
2022-12-08T05:26:01.056Z,18.63
2022-12-08T05:28:44.093Z,20.30
2022-12-08T05:31:15.437Z,19.13
2022-12-08T05:33:42.623Z,18.77
2022-12-08T05:36:10.325Z,28.37
2022-12-08T05:38:36.832Z,25.17
2022-12-08T05:41:04.109Z,17.57
2022-12-08T05:43:30.695Z,17.57
2022-12-08T05:45:57.334Z,18.70
2022-12-08T05:48:23.791Z,18.60
2022-12-08T05:50:50.733Z,17.33
2022-12-08T05:53:18.804Z,16.60
2022-12-08T05:55:46.040Z,17.87
2022-12-08T05:58:14.570Z,17.10
2022-12-08T06:00:41.925Z,17.70
2022-12-08T06:03:09.020Z,18.37
2022-12-08T06:05:35.696Z,20.80
2022-12-08T06:08:02.240Z,22.50
2022-12-08T06:10:28.996Z,20.60
2022-12-08T06:12:55.568Z,27.83
2022-12-08T06:15:22.394Z,21.40
2022-12-08T06:17:48.880Z,20.37
2022-12-08T06:20:15.544Z,25.00
2022-12-08T06:22:42.282Z,21.27
2022-12-08T06:25:10.237Z,22.07
2022-12-08T06:27:37.018Z,20.43
2022-12-08T06:30:04.533Z,21.40
2022-12-08T06:32:31.344Z,23.10
2022-12-08T06:34:57.896Z,18.90
2022-12-08T06:37:24.427Z,18.87
2022-12-08T06:39:51.775Z,18.97
2022-12-08T06:42:37.088Z,18.77
2022-12-08T06:45:04.056Z,27.80
2022-12-08T06:47:30.756Z,21.17
2022-12-08T06:49:57.438Z,23.87
2022-12-08T06:52:24.081Z,21.50
2022-12-08T06:54:50.888Z,22.83
2022-12-08T06:57:18.655Z,15.73
2022-12-08T06:59:45.088Z,18.67
2022-12-08T07:02:11.734Z,21.10
2022-12-08T07:04:38.528Z,21.67
2022-12-08T07:07:05.208Z,18.00
2022-12-08T07:09:31.854Z,18.57
2022-12-08T07:11:58.498Z,23.27
2022-12-08T07:14:25.356Z,27.83
2022-12-08T07:16:52.234Z,24.93
2022-12-08T07:19:19.126Z,25.17
2022-12-08T07:21:46.127Z,25.20
2022-12-08T07:24:13.090Z,20.70
2022-12-08T07:26:40.052Z,22.80
2022-12-08T07:29:06.899Z,28.10
2022-12-08T07:31:33.942Z,24.33
2022-12-08T07:34:00.594Z,24.03
2022-12-08T07:36:27.643Z,23.07
2022-12-08T07:38:54.398Z,27.20
2022-12-08T07:41:23.571Z,25.20
2022-12-08T07:43:50.792Z,19.23
2022-12-08T07:46:20.271Z,20.83
2022-12-08T07:48:47.073Z,21.70
2022-12-08T07:51:15.522Z,20.40
2022-12-08T07:53:47.207Z,26.67
2022-12-08T07:56:16.824Z,22.93
2022-12-08T07:58:45.808Z,22.30
2022-12-08T08:01:20.970Z,20.87
2022-12-08T08:03:47.786Z,19.53
2022-12-08T08:06:14.606Z,21.27
2022-12-08T08:08:41.435Z,21.60
2022-12-08T08:11:14.618Z,19.03
2022-12-08T08:13:46.089Z,25.67
2022-12-08T08:16:13.786Z,22.37
2022-12-08T08:18:40.674Z,28.23
2022-12-08T08:21:43.124Z,17.60
2022-12-08T08:23:54.536Z,20.87
2022-12-08T08:26:21.302Z,16.63
2022-12-08T08:28:48.351Z,19.37
2022-12-08T08:31:15.149Z,17.47
2022-12-08T08:33:41.696Z,21.80
2022-12-08T08:36:09.527Z,28.90
2022-12-08T08:38:40.147Z,23.07
2022-12-08T08:41:10.499Z,16.40
2022-12-08T08:43:38.537Z,17.80
2022-12-08T08:46:06.428Z,18.27
2022-12-08T08:48:33.806Z,20.40
2022-12-08T08:51:08.604Z,14.80
2022-12-08T08:53:38.771Z,18.50
2022-12-08T08:56:13.116Z,14.67
2022-12-08T08:58:40.734Z,21.43
2022-12-08T09:01:07.792Z,16.43
2022-12-08T09:03:35.465Z,16.13
2022-12-08T09:06:02.301Z,19.90
2022-12-08T09:08:30.188Z,19.63
2022-12-08T09:10:57.415Z,17.50
2022-12-08T09:13:25.917Z,16.10
2022-12-08T09:15:52.640Z,13.50
2022-12-08T09:18:19.431Z,13.83
2022-12-08T09:20:45.921Z,12.37
2022-12-08T09:23:12.537Z,10.67
2022-12-08T09:25:39.200Z,17.57
2022-12-08T09:28:05.852Z,12.20
2022-12-08T09:30:32.409Z,17.40
2022-12-08T09:32:58.977Z,15.17
2022-12-08T09:35:25.743Z,18.80
2022-12-08T09:37:52.599Z,16.63
2022-12-08T09:40:21.371Z,17.27
2022-12-08T09:42:52.123Z,29.27
2022-12-08T09:45:20.179Z,14.87
2022-12-08T09:48:10.596Z,14.93
2022-12-08T09:50:41.301Z,23.53
2022-12-08T09:53:21.516Z,20.80
2022-12-08T09:55:54.553Z,21.27
2022-12-08T09:58:36.034Z,22.80
2022-12-08T10:01:02.649Z,25.97
2022-12-08T10:03:31.248Z,23.37
2022-12-08T10:06:09.339Z,21.57
2022-12-08T10:08:55.647Z,26.53
2022-12-08T10:12:06.265Z,19.63
2022-12-08T10:14:58.110Z,26.20
2022-12-08T10:17:40.106Z,21.33
2022-12-08T10:20:18.555Z,22.37
2022-12-08T10:22:46.802Z,23.13
2022-12-08T10:25:22.508Z,24.40
2022-12-08T10:27:54.003Z,26.57
2022-12-08T10:30:21.867Z,20.97
2022-12-08T10:32:50.568Z,23.80
2022-12-08T10:35:19.258Z,22.50
2022-12-08T10:37:56.495Z,23.03
2022-12-08T10:40:23.172Z,32.03
2022-12-08T10:42:52.706Z,20.00
2022-12-08T10:45:24.455Z,24.57
2022-12-08T10:47:57.323Z,26.47
2022-12-08T10:50:28.227Z,27.50
2022-12-08T10:53:16.900Z,21.10
2022-12-08T10:55:51.317Z,24.27
2022-12-08T10:58:28.349Z,30.07
2022-12-08T11:00:58.112Z,26.67
2022-12-08T11:03:35.201Z,25.03
2022-12-08T11:06:11.097Z,27.90
2022-12-08T11:08:47.536Z,31.63
2022-12-08T11:11:14.220Z,22.93
2022-12-08T11:13:41.957Z,28.40
2022-12-08T11:16:09.071Z,31.30
2022-12-08T11:18:50.223Z,32.00
2022-12-08T11:21:19.635Z,33.33
2022-12-08T11:23:50.597Z,30.83
2022-12-08T11:26:27.345Z,31.37
2022-12-08T11:28:53.957Z,25.30
2022-12-08T11:31:36.117Z,33.20
2022-12-08T11:34:03.231Z,26.83
2022-12-08T11:36:30.636Z,32.10
2022-12-08T11:39:00.298Z,31.37
2022-12-08T11:41:38.386Z,27.77
2022-12-08T11:44:21.699Z,30.97
2022-12-08T11:46:51.516Z,32.40
2022-12-08T11:49:18.865Z,44.90
2022-12-08T11:51:59.302Z,34.83
2022-12-08T11:54:33.143Z,39.20
2022-12-08T11:57:03.106Z,37.00
2022-12-08T11:59:33.032Z,32.33
2022-12-08T12:02:01.395Z,34.97
2022-12-08T12:04:42.264Z,40.50
2022-12-08T12:07:40.054Z,33.43
2022-12-08T12:10:17.667Z,37.57
2022-12-08T12:13:17.486Z,35.87
2022-12-08T12:16:08.660Z,38.60
2022-12-08T12:18:46.277Z,38.47
2022-12-08T12:21:21.661Z,43.57
2022-12-08T12:23:53.789Z,43.03
2022-12-08T12:26:23.135Z,38.13
2022-12-08T12:28:59.584Z,39.67
2022-12-08T12:31:29.630Z,39.20
2022-12-08T12:34:05.758Z,39.63
2022-12-08T12:36:32.696Z,42.67
2022-12-08T12:39:03.852Z,41.73
2022-12-08T12:41:43.143Z,42.90
2022-12-08T12:44:24.394Z,38.60
2022-12-08T12:46:50.695Z,48.50
2022-12-08T12:49:39.230Z,42.13
2022-12-08T12:52:23.791Z,40.87
2022-12-08T12:54:50.311Z,42.23
2022-12-08T12:57:19.316Z,43.17
2022-12-08T12:59:53.242Z,45.47
2022-12-08T13:02:30.012Z,42.37
2022-12-08T13:05:09.994Z,47.10
2022-12-08T13:07:43.900Z,45.13
2022-12-08T13:10:26.855Z,41.03
2022-12-08T13:13:17.717Z,41.97
2022-12-08T13:15:58.937Z,43.93
2022-12-08T13:18:39.458Z,44.20
2022-12-08T13:21:15.093Z,47.97
2022-12-08T13:23:43.825Z,48.53
2022-12-08T13:26:21.589Z,43.13
2022-12-08T13:29:14.134Z,45.17
2022-12-08T13:31:50.144Z,43.93
2022-12-08T13:34:23.453Z,47.50
2022-12-08T13:36:59.766Z,44.53
2022-12-08T13:39:32.206Z,44.50
2022-12-08T13:42:04.014Z,45.93
2022-12-08T13:47:34.183Z,47.07
2022-12-08T13:58:40.383Z,43.73
2022-12-08T14:01:22.418Z,47.93
2022-12-08T14:04:20.427Z,46.07
2022-12-08T14:06:37.840Z,46.53
2022-12-08T14:09:10.955Z,46.83
2022-12-08T14:11:44.220Z,45.37
2022-12-08T14:14:46.007Z,47.87
2022-12-08T14:17:14.639Z,47.23
2022-12-08T14:19:44.554Z,52.37
2022-12-08T14:22:13.713Z,46.80
2022-12-08T14:24:40.765Z,49.07
2022-12-08T14:27:10.312Z,50.63
2022-12-08T14:29:43.764Z,48.03
2022-12-08T14:32:20.737Z,44.00
2022-12-08T14:35:02.046Z,48.83
2022-12-08T14:37:31.772Z,45.23
2022-12-08T14:40:22.902Z,48.70
2022-12-08T14:43:05.669Z,54.57
2022-12-08T14:45:38.072Z,50.17
2022-12-08T14:48:38.432Z,48.03
2022-12-08T14:51:20.775Z,46.03
2022-12-08T14:54:11.762Z,46.63
2022-12-08T14:56:48.628Z,49.97
2022-12-08T14:59:26.490Z,51.17
2022-12-08T15:02:15.940Z,51.83
2022-12-08T15:04:45.112Z,40.93
2022-12-08T15:07:17.398Z,46.67
2022-12-08T15:09:46.842Z,46.43
2022-12-08T15:12:13.488Z,54.90
2022-12-08T15:15:01.650Z,45.30
2022-12-08T15:17:40.055Z,45.20
2022-12-08T15:20:27.569Z,47.70
2022-12-08T15:22:58.495Z,49.67
2022-12-08T15:25:25.391Z,48.63
2022-12-08T15:27:53.367Z,54.93
2022-12-08T15:30:20.456Z,51.53
2022-12-08T15:32:47.361Z,48.77
2022-12-08T15:35:15.237Z,57.73
2022-12-08T15:37:42.792Z,47.30
2022-12-08T15:40:20.286Z,46.77
2022-12-08T15:42:47.452Z,48.70
2022-12-08T15:45:15.480Z,50.03
2022-12-08T15:47:43.232Z,45.60
2022-12-08T15:50:17.692Z,49.17
2022-12-08T15:52:44.643Z,46.43
2022-12-08T15:55:18.716Z,48.10
2022-12-08T15:58:51.108Z,51.03
2022-12-08T16:00:56.647Z,49.30
2022-12-08T16:07:04.723Z,50.10
2022-12-08T16:09:12.413Z,44.90
2022-12-08T16:12:09.842Z,54.23
2022-12-08T16:17:24.685Z,48.37
2022-12-08T16:19:51.542Z,50.13
2022-12-08T16:23:03.619Z,45.27
2022-12-08T16:25:27.323Z,46.67
2022-12-08T16:28:02.869Z,50.93
2022-12-08T16:30:36.489Z,47.00
2022-12-08T16:33:03.348Z,42.97
2022-12-08T16:35:30.528Z,48.10
2022-12-08T16:37:57.646Z,47.53
2022-12-08T16:40:24.722Z,45.67
2022-12-08T16:42:51.238Z,46.27
2022-12-08T16:45:26.946Z,43.67
2022-12-08T16:47:55.953Z,42.27
2022-12-08T16:50:26.706Z,41.13
2022-12-08T16:53:05.225Z,44.20
2022-12-08T16:55:32.533Z,42.57
2022-12-08T16:57:59.233Z,47.27
2022-12-08T17:00:27.824Z,42.10
2022-12-08T17:02:55.097Z,42.00
2022-12-08T17:05:23.915Z,38.87
2022-12-08T17:07:52.749Z,46.67
2022-12-08T17:10:25.442Z,43.67
2022-12-08T17:12:52.180Z,39.03
2022-12-08T17:15:21.312Z,40.27
2022-12-08T17:17:48.143Z,48.73
2022-12-08T17:20:17.217Z,38.10
2022-12-08T17:22:44.501Z,43.27
2022-12-08T17:25:11.525Z,36.83
2022-12-08T17:27:39.025Z,39.13
2022-12-08T17:30:08.186Z,42.50
2022-12-08T17:32:37.285Z,35.87
2022-12-08T17:35:04.271Z,34.90
2022-12-08T17:37:31.040Z,40.57
2022-12-08T17:39:57.600Z,40.13
2022-12-08T17:42:26.386Z,38.47
2022-12-08T17:44:53.633Z,33.67
2022-12-08T17:47:20.491Z,38.17
2022-12-08T17:49:46.931Z,39.00
2022-12-08T17:52:13.979Z,44.10
2022-12-08T17:54:40.692Z,36.60
2022-12-08T17:57:07.232Z,36.70
2022-12-08T17:59:35.070Z,37.60
2022-12-08T18:02:01.605Z,39.47
2022-12-08T18:04:28.680Z,41.97
2022-12-08T18:06:55.334Z,38.47
2022-12-08T18:09:21.976Z,37.90
2022-12-08T18:11:48.644Z,39.93
2022-12-08T18:14:15.631Z,37.53
2022-12-08T18:16:44.340Z,38.37
2022-12-08T18:19:12.452Z,38.50
2022-12-08T18:21:39.890Z,41.37
2022-12-08T18:24:07.270Z,39.77
2022-12-08T18:26:34.201Z,36.93
2022-12-08T18:29:00.862Z,38.53
2022-12-08T18:31:27.734Z,39.90
2022-12-08T18:33:54.426Z,38.97
2022-12-08T18:36:23.593Z,35.03
2022-12-08T18:38:50.359Z,34.13
2022-12-08T18:41:20.698Z,34.33
2022-12-08T18:43:47.316Z,33.27
2022-12-08T18:46:14.731Z,42.63
2022-12-08T18:48:43.654Z,34.40
2022-12-08T18:51:18.687Z,42.13
2022-12-08T18:53:46.454Z,36.20
2022-12-08T18:56:42.050Z,38.33
2022-12-08T18:59:12.079Z,40.93
2022-12-08T19:01:41.213Z,35.53
2022-12-08T19:04:27.883Z,36.67
2022-12-08T19:06:55.550Z,35.97
2022-12-08T19:09:23.025Z,42.07
2022-12-08T19:11:49.666Z,36.53
2022-12-08T19:14:16.607Z,36.83
2022-12-08T19:16:43.182Z,37.80
2022-12-08T19:19:09.758Z,42.13
2022-12-08T19:21:42.919Z,40.07
2022-12-08T19:24:12.577Z,39.60
2022-12-08T19:26:39.417Z,37.37
2022-12-08T19:29:05.995Z,39.60
2022-12-08T19:31:32.602Z,45.97
2022-12-08T19:33:59.271Z,43.40
2022-12-08T19:36:27.479Z,38.50
2022-12-08T19:39:12.734Z,41.83
2022-12-08T19:41:57.975Z,43.07
2022-12-08T19:44:46.294Z,44.60
2022-12-08T19:47:13.201Z,40.53
2022-12-08T19:49:39.801Z,42.40
2022-12-08T19:52:06.713Z,43.83
2022-12-08T19:54:34.003Z,43.63
2022-12-08T19:57:00.849Z,45.40
2022-12-08T19:59:30.220Z,46.30
2022-12-08T20:02:00.271Z,41.57
2022-12-08T20:04:27.770Z,42.70
2022-12-08T20:06:55.997Z,44.83
2022-12-08T20:09:23.668Z,45.37
2022-12-08T20:11:50.803Z,43.20
2022-12-08T20:14:18.311Z,39.77
2022-12-08T20:16:44.999Z,44.37
2022-12-08T20:19:11.710Z,43.20
2022-12-08T20:21:39.516Z,41.53
2022-12-08T20:24:06.459Z,42.50
2022-12-08T20:26:32.900Z,41.40
2022-12-08T20:28:59.464Z,41.03
2022-12-08T20:31:28.407Z,39.57
2022-12-08T20:33:55.236Z,45.90
2022-12-08T20:36:22.306Z,43.93
2022-12-08T20:38:50.954Z,46.50
2022-12-08T20:41:18.734Z,37.50
2022-12-08T20:43:46.618Z,41.77
2022-12-08T20:46:15.238Z,38.60
2022-12-08T20:48:42.630Z,45.27
2022-12-08T20:51:12.498Z,41.83
2022-12-08T20:53:39.147Z,41.83
2022-12-08T20:56:05.780Z,41.60
2022-12-08T20:58:32.451Z,42.83
2022-12-08T21:00:59.077Z,44.43
2022-12-08T21:03:26.896Z,45.03
2022-12-08T21:05:53.627Z,44.30
2022-12-08T21:08:20.387Z,47.93
2022-12-08T21:10:53.482Z,41.23
2022-12-08T21:13:20.026Z,43.33
2022-12-08T21:15:47.082Z,43.73
2022-12-08T21:18:15.064Z,42.53
2022-12-08T21:20:41.683Z,44.17
2022-12-08T21:23:08.599Z,44.23
2022-12-08T21:25:35.556Z,40.73
2022-12-08T21:28:02.204Z,41.43
2022-12-08T21:30:28.660Z,43.90
2022-12-08T21:32:55.529Z,48.77
2022-12-08T21:35:22.168Z,45.10
2022-12-08T21:37:48.941Z,44.53
2022-12-08T21:40:15.673Z,50.30
2022-12-08T21:42:45.159Z,48.67
2022-12-08T21:45:17.276Z,45.20
2022-12-08T21:47:44.684Z,49.73
2022-12-08T21:50:12.321Z,42.70
2022-12-08T21:52:40.148Z,43.53
2022-12-08T21:55:07.958Z,49.97
2022-12-08T21:57:35.568Z,46.50
2022-12-08T22:00:02.292Z,47.47
2022-12-08T22:02:28.991Z,43.30
2022-12-08T22:04:56.046Z,41.20
2022-12-08T22:07:22.792Z,48.43
2022-12-08T22:09:49.436Z,51.70
2022-12-08T22:12:17.023Z,51.60
2022-12-08T22:14:44.185Z,48.07
2022-12-08T22:17:10.697Z,46.63
2022-12-08T22:19:37.821Z,44.70
2022-12-08T22:22:04.401Z,51.97
2022-12-08T22:24:31.340Z,50.60
2022-12-08T22:26:57.946Z,46.77
2022-12-08T22:29:24.570Z,46.93
2022-12-08T22:31:51.186Z,44.03
2022-12-08T22:34:18.137Z,43.43
2022-12-08T22:36:44.823Z,48.53
2022-12-08T22:39:12.354Z,49.00
2022-12-08T22:41:39.413Z,46.03
2022-12-08T22:44:06.960Z,45.13
2022-12-08T22:46:33.836Z,46.13
2022-12-08T22:49:00.606Z,47.20
2022-12-08T22:51:27.246Z,46.73
2022-12-08T22:53:53.811Z,51.63
2022-12-08T22:56:20.681Z,48.10
2022-12-08T22:58:48.269Z,45.47
2022-12-08T23:01:23.058Z,47.90
2022-12-08T23:03:49.695Z,49.07
2022-12-08T23:06:16.527Z,47.03
2022-12-08T23:08:43.952Z,49.37
2022-12-08T23:11:10.493Z,50.23
2022-12-08T23:13:37.436Z,47.87
2022-12-08T23:16:04.119Z,50.43
2022-12-08T23:18:30.560Z,47.63
2022-12-08T23:21:03.393Z,51.73
2022-12-08T23:23:29.815Z,48.03
2022-12-08T23:25:56.537Z,49.37
2022-12-08T23:28:23.099Z,54.73
2022-12-08T23:30:49.650Z,55.50
2022-12-08T23:33:16.501Z,53.63
2022-12-08T23:35:43.343Z,53.00
2022-12-08T23:38:09.879Z,48.97
2022-12-08T23:40:36.557Z,47.60
2022-12-08T23:43:05.219Z,51.47
2022-12-08T23:45:31.905Z,52.17
2022-12-08T23:47:58.398Z,52.33
2022-12-08T23:50:24.912Z,52.07
2022-12-08T23:52:51.539Z,57.07
2022-12-08T23:55:17.969Z,58.53
2022-12-08T23:57:44.572Z,57.90
